Time;durP1;ratioP1;P1;durP2;ratioP2;P2;SDS_P1;SDS_P2;PMS_P1;PMS_P2;Temp;Humidity;BMP_temperature;BMP_pressure;BME280_temperature;BME280_humidity;BME280_pressure;Samples;Min_cycle;Max_cycle;Signal;HPM_P1;HPM_P2
2023/08/02 00:00:48;;;;;;;11.93;2.47;;;;;;;16.66;100.00;99494.34;4832903;29;20095;-74
2023/08/02 00:03:52;;;;;;;7.18;1.95;;;;;;;16.63;100.00;99482.28;4832652;29;20091;-74
2023/08/02 00:06:55;;;;;;;7.22;2.53;;;;;;;16.65;100.00;99479.47;4828639;29;20059;-74
2023/08/02 00:09:59;;;;;;;7.53;2.58;;;;;;;16.62;100.00;99485.03;4830352;29;20531;-74
2023/08/02 00:13:02;;;;;;;5.40;2.13;;;;;;;16.58;100.00;99473.94;4831204;29;20107;-74
2023/08/02 00:16:05;;;;;;;10.50;2.20;;;;;;;16.56;100.00;99475.06;4830753;29;20370;-75
2023/08/02 00:19:08;;;;;;;9.05;2.03;;;;;;;16.61;100.00;99471.03;4832916;29;20111;-74
2023/08/02 00:22:12;;;;;;;8.15;2.30;;;;;;;16.67;100.00;99477.53;4833240;29;20060;-74
2023/08/02 00:25:15;;;;;;;12.88;2.33;;;;;;;16.71;100.00;99481.53;4831095;29;20135;-74
2023/08/02 00:28:18;;;;;;;7.30;2.25;;;;;;;16.78;100.00;99485.28;4830200;29;20461;-74
2023/08/02 00:31:22;;;;;;;11.10;2.20;;;;;;;16.59;100.00;99475.63;4830977;29;20531;-74
2023/08/02 00:34:26;;;;;;;11.32;2.67;;;;;;;16.60;100.00;99464.09;4832057;29;20041;-74
2023/08/02 00:37:29;;;;;;;9.85;1.92;;;;;;;16.51;100.00;99463.13;4832253;29;20053;-74
2023/08/02 00:40:33;;;;;;;8.80;2.33;;;;;;;16.52;100.00;99459.50;4831246;29;20130;-75
2023/08/02 00:43:44;;;;;;;14.55;2.38;;;;;;;16.59;100.00;99448.38;4832164;29;20080;-74
2023/08/02 00:46:47;;;;;;;12.43;2.70;;;;;;;16.45;100.00;99453.16;4841631;29;20220;-74
2023/08/02 00:49:51;;;;;;;9.00;2.67;;;;;;;16.48;100.00;99458.16;4840864;29;20048;-74
2023/08/02 00:52:58;;;;;;;6.80;2.33;;;;;;;16.43;100.00;99449.84;4840602;29;20080;-75
2023/08/02 00:56:02;;;;;;;9.60;2.30;;;;;;;16.41;100.00;99438.59;4830316;29;20118;-74
2023/08/02 00:59:05;;;;;;;7.78;2.25;;;;;;;16.43;100.00;99449.00;4841422;29;20048;-74
2023/08/02 01:02:09;;;;;;;8.77;2.63;;;;;;;16.48;100.00;99447.59;4841565;29;20052;-74
2023/08/02 01:05:12;;;;;;;9.00;2.60;;;;;;;16.61;100.00;99441.16;4840466;29;20045;-73
2023/08/02 01:08:32;;;;;;;10.60;2.55;;;;;;;16.54;100.00;99440.09;4839916;29;20107;-74
2023/08/02 01:11:42;;;;;;;9.40;1.95;;;;;;;16.49;100.00;99432.59;4843808;29;20512;-74
2023/08/02 01:14:57;;;;;;;9.60;2.17;;;;;;;16.59;100.00;99422.84;4844453;29;20052;-73
2023/08/02 01:18:02;;;;;;;6.38;2.15;;;;;;;16.66;100.00;99421.28;4844800;29;20571;-73
2023/08/02 01:21:05;;;;;;;7.03;2.25;;;;;;;16.63;100.00;99418.94;4844254;29;20164;-73
2023/08/02 01:24:09;;;;;;;6.05;2.30;;;;;;;16.65;100.00;99413.50;4833266;29;20099;-73
2023/08/02 01:27:23;;;;;;;9.65;2.60;;;;;;;16.65;100.00;99406.41;4842961;29;20413;-74
2023/08/02 01:30:33;;;;;;;6.90;2.15;;;;;;;16.60;100.00;99413.94;4844017;29;20573;-74
2023/08/02 01:33:42;;;;;;;9.55;2.65;;;;;;;16.58;100.00;99420.34;4843760;29;20052;-74
2023/08/02 01:36:47;;;;;;;9.57;2.42;;;;;;;16.48;100.00;99413.28;4843691;29;20080;-74
2023/08/02 01:39:50;;;;;;;8.85;2.20;;;;;;;16.54;100.00;99403.16;4843822;29;20045;-75
2023/08/02 01:42:54;;;;;;;6.10;2.38;;;;;;;16.63;100.00;99412.84;4843568;29;20449;-74
2023/08/02 01:45:57;;;;;;;7.68;2.40;;;;;;;16.45;100.00;99410.94;4843039;29;20664;-74
2023/08/02 01:49:01;;;;;;;6.75;2.45;;;;;;;16.50;100.00;99408.72;4832860;29;20144;-74
2023/08/02 01:52:05;;;;;;;10.43;2.95;;;;;;;16.56;100.00;99398.53;4844235;29;20095;-74
2023/08/02 01:55:09;;;;;;;10.10;2.03;;;;;;;16.49;100.00;99385.91;4844316;29;20508;-75
2023/08/02 01:58:12;;;;;;;8.63;2.15;;;;;;;16.46;100.00;99377.47;4844094;29;20137;-75
2023/08/02 02:01:15;;;;;;;5.93;1.90;;;;;;;16.34;100.00;99368.94;4842829;29;20420;-74
2023/08/02 02:04:18;;;;;;;4.47;1.77;;;;;;;16.35;100.00;99364.47;4843102;29;20049;-75
2023/08/02 02:07:22;;;;;;;11.32;3.13;;;;;;;16.36;100.00;99361.69;4843653;29;20415;-74
2023/08/02 02:10:25;;;;;;;7.55;2.38;;;;;;;16.36;100.00;99353.78;4842830;29;20109;-74
2023/08/02 02:13:28;;;;;;;10.73;2.08;;;;;;;16.41;100.00;99350.72;4842606;29;20436;-74
2023/08/02 02:16:32;;;;;;;7.55;2.50;;;;;;;16.36;100.00;99342.41;4842595;29;20058;-74
2023/08/02 02:19:35;;;;;;;13.25;2.55;;;;;;;16.30;100.00;99345.63;4842950;29;20068;-74
2023/08/02 02:22:38;;;;;;;10.27;2.20;;;;;;;16.10;100.00;99332.50;4842517;29;20058;-74
2023/08/02 02:25:43;;;;;;;10.02;2.58;;;;;;;16.15;100.00;99329.44;4843561;29;20045;-74
2023/08/02 02:28:46;;;;;;;3.78;1.75;;;;;;;16.09;100.00;99315.03;4843616;29;20541;-74
2023/08/02 02:31:49;;;;;;;8.30;2.30;;;;;;;16.08;100.00;99323.06;4843543;29;20057;-74
2023/08/02 02:34:54;;;;;;;7.90;2.65;;;;;;;15.99;100.00;99324.78;4842596;29;20053;-74
2023/08/02 02:37:57;;;;;;;7.00;2.30;;;;;;;15.96;100.00;99312.72;4843276;29;20068;-74
2023/08/02 02:41:00;;;;;;;4.88;1.80;;;;;;;15.96;100.00;99314.53;4842811;29;20049;-74
2023/08/02 02:44:04;;;;;;;6.65;1.90;;;;;;;16.03;100.00;99316.44;4841655;29;20056;-74
2023/08/02 02:47:09;;;;;;;7.53;1.77;;;;;;;16.08;100.00;99301.97;4843096;29;20187;-74
2023/08/02 02:50:13;;;;;;;6.80;1.80;;;;;;;15.86;100.00;99284.72;4843143;29;20091;-74
2023/08/02 02:53:20;;;;;;;13.32;2.63;;;;;;;15.89;100.00;99273.88;4842993;29;20595;-74
2023/08/02 02:56:24;;;;;;;8.93;2.13;;;;;;;15.81;100.00;99272.81;4843008;29;20045;-74
2023/08/02 02:59:27;;;;;;;5.70;2.13;;;;;;;15.72;100.00;99270.22;4843025;29;20095;-74
2023/08/02 03:02:31;;;;;;;6.10;2.05;;;;;;;15.84;100.00;99258.50;4843181;29;20178;-74
2023/08/02 03:05:37;;;;;;;7.97;2.53;;;;;;;15.99;100.00;99250.97;4842807;29;20049;-75
2023/08/02 03:08:40;;;;;;;6.15;2.70;;;;;;;15.91;100.00;99248.22;4842997;29;20518;-74
2023/08/02 03:11:44;;;;;;;12.60;2.03;;;;;;;15.92;100.00;99240.19;4842635;29;20064;-74
2023/08/02 03:14:47;;;;;;;16.67;3.35;;;;;;;15.96;100.00;99241.53;4842649;29;20107;-74
2023/08/02 03:17:50;;;;;;;6.38;2.20;;;;;;;15.86;100.00;99247.81;4841936;29;20100;-74
2023/08/02 03:20:53;;;;;;;6.10;2.30;;;;;;;15.92;100.00;99253.38;4842913;29;20056;-74
2023/08/02 03:23:57;;;;;;;13.82;2.67;;;;;;;15.88;100.00;99241.44;4842138;29;20056;-71
2023/08/02 03:27:06;;;;;;;12.00;2.88;;;;;;;15.87;100.00;99223.13;4842124;29;20065;-71
2023/08/02 03:30:09;;;;;;;7.68;2.97;;;;;;;15.78;100.00;99206.38;4841402;29;20125;-71
2023/08/02 03:33:12;;;;;;;7.70;2.95;;;;;;;15.82;100.00;99205.09;4841596;29;20099;-74
2023/08/02 03:36:16;;;;;;;15.90;4.25;;;;;;;15.68;100.00;99218.78;4852233;29;20080;-73
2023/08/02 03:39:19;;;;;;;10.52;3.58;;;;;;;15.72;100.00;99186.69;4821462;29;20054;-75
2023/08/02 03:42:23;;;;;;;7.13;2.80;;;;;;;15.70;100.00;99188.66;4822737;29;20065;-72
2023/08/02 03:45:26;;;;;;;7.50;2.67;;;;;;;15.67;100.00;99191.59;4815802;29;20481;-72
2023/08/02 03:48:31;;;;;;;10.48;2.35;;;;;;;15.65;100.00;99185.59;4824794;29;20053;-72
2023/08/02 03:51:39;;;;;;;7.18;2.70;;;;;;;15.61;100.00;99178.97;4819456;29;20104;-74
2023/08/02 03:55:19;;;;;;;5.18;2.20;;;;;;;15.74;100.00;99194.47;4821228;29;20168;-73
2023/08/02 03:58:23;;;;;;;9.55;2.65;;;;;;;15.72;100.00;99201.69;4821665;29;20060;-74
2023/08/02 04:01:26;;;;;;;8.40;2.38;;;;;;;15.86;100.00;99201.22;4821523;29;20611;-73
2023/08/02 04:04:29;;;;;;;5.65;2.17;;;;;;;15.93;100.00;99201.47;4821527;29;20049;-74
2023/08/02 04:07:33;;;;;;;11.43;2.25;;;;;;;15.80;100.00;99205.25;4821800;29;20133;-73
2023/08/02 04:10:38;;;;;;;9.68;1.98;;;;;;;15.77;100.00;99207.38;4821753;29;20478;-73
2023/08/02 04:13:42;;;;;;;7.90;2.03;;;;;;;15.74;100.00;99215.56;4821663;29;20557;-73
2023/08/02 04:16:45;;;;;;;5.38;2.33;;;;;;;15.71;100.00;99210.56;4821242;29;20114;-73
2023/08/02 04:19:48;;;;;;;10.07;2.30;;;;;;;15.80;100.00;99200.00;4820945;29;20543;-73
2023/08/02 04:22:55;;;;;;;6.90;2.33;;;;;;;15.85;100.00;99206.63;4810217;29;20523;-73
2023/08/02 04:26:11;;;;;;;6.60;2.08;;;;;;;15.83;100.00;99180.44;4818734;29;20115;-80
2023/08/02 04:29:14;;;;;;;6.25;2.30;;;;;;;15.77;100.00;99170.47;4821141;29;20061;-74
2023/08/02 04:32:19;;;;;;;5.15;2.33;;;;;;;15.76;100.00;99176.69;4821243;29;20085;-76
2023/08/02 04:35:22;;;;;;;5.82;2.13;;;;;;;15.68;100.00;99180.06;4821105;29;20099;-75
2023/08/02 04:38:46;;;;;;;5.05;2.28;;;;;;;15.71;100.00;99174.50;4817187;29;20536;-76
2023/08/02 04:42:01;;;;;;;9.40;3.15;;;;;;;15.74;100.00;99165.50;4822495;29;20433;-75
2023/08/02 04:45:05;;;;;;;7.95;3.90;;;;;;;15.70;100.00;99164.13;4824485;29;20099;-75
2023/08/02 04:48:09;;;;;;;7.53;2.78;;;;;;;15.71;100.00;99158.69;4825211;29;20053;-76
2023/08/02 04:51:12;;;;;;;6.20;2.22;;;;;;;15.70;100.00;99157.06;4824714;29;20104;-75
2023/08/02 04:54:15;;;;;;;8.27;2.72;;;;;;;15.72;100.00;99156.88;4819633;29;20044;-76
2023/08/02 04:57:19;;;;;;;8.20;2.80;;;;;;;15.84;100.00;99147.00;4824770;29;20110;-73
2023/08/02 05:00:22;;;;;;;6.22;2.50;;;;;;;15.81;100.00;99154.19;4824929;29;20061;-75
2023/08/02 05:03:26;;;;;;;5.88;2.30;;;;;;;15.90;100.00;99151.66;4825565;29;20069;-75
2023/08/02 05:06:30;;;;;;;10.77;2.30;;;;;;;16.01;100.00;99147.00;4824157;29;20050;-75
2023/08/02 05:09:34;;;;;;;10.20;2.40;;;;;;;16.06;100.00;99135.19;4820856;29;20064;-75
2023/08/02 05:12:38;;;;;;;4.72;2.35;;;;;;;15.87;100.00;99125.59;4807284;29;20053;-75
2023/08/02 05:15:41;;;;;;;6.18;2.58;;;;;;;15.91;100.00;99125.16;4807652;29;20061;-75
2023/08/02 05:18:45;;;;;;;7.30;2.20;;;;;;;15.93;100.00;99123.22;4809606;29;20127;-75
2023/08/02 05:21:49;;;;;;;5.75;2.33;;;;;;;15.87;100.00;99110.63;4823109;29;20154;-75
2023/08/02 05:24:53;;;;;;;7.97;2.30;;;;;;;15.99;100.00;99109.44;4818884;29;20042;-75
2023/08/02 05:27:57;;;;;;;13.80;2.95;;;;;;;15.98;100.00;99105.13;4829960;29;20428;-75
2023/08/02 05:31:01;;;;;;;6.68;2.80;;;;;;;15.99;100.00;99092.78;4825117;29;20125;-73
2023/08/02 05:34:04;;;;;;;7.40;2.63;;;;;;;15.94;100.00;99095.84;4825006;29;20131;-73
2023/08/02 05:37:07;;;;;;;5.25;2.63;;;;;;;15.97;100.00;99074.47;4825085;29;20061;-73
2023/08/02 05:40:11;;;;;;;7.78;2.30;;;;;;;16.03;100.00;99073.06;4824792;29;20049;-74
2023/08/02 05:43:14;;;;;;;5.70;2.25;;;;;;;16.10;100.00;99062.72;4824912;29;20050;-73
2023/08/02 05:46:18;;;;;;;7.40;2.33;;;;;;;16.08;100.00;99043.59;4823898;29;20049;-73
2023/08/02 05:49:21;;;;;;;7.13;2.50;;;;;;;16.15;100.00;99042.03;4824411;29;20076;-73
2023/08/02 05:52:25;;;;;;;7.85;3.00;;;;;;;16.16;100.00;99027.84;4824754;29;20425;-73
2023/08/02 05:55:29;;;;;;;6.25;2.85;;;;;;;16.12;100.00;99016.78;4823776;29;20093;-76
2023/08/02 05:58:33;;;;;;;6.05;2.75;;;;;;;16.03;100.00;99012.41;4823104;29;20053;-74
2023/08/02 06:01:39;;;;;;;6.15;2.88;;;;;;;16.15;100.00;99000.66;4792584;29;20134;-75
2023/08/02 06:04:45;;;;;;;8.40;2.75;;;;;;;16.20;100.00;98979.09;4788820;29;20177;-75
2023/08/02 06:07:48;;;;;;;5.18;2.42;;;;;;;16.08;100.00;98989.06;4788468;29;20054;-73
2023/08/02 06:10:51;;;;;;;6.47;2.65;;;;;;;16.23;100.00;98995.41;4802925;29;20116;-74
2023/08/02 06:13:55;;;;;;;6.80;3.15;;;;;;;16.31;100.00;99002.59;4804760;29;20101;-75
2023/08/02 06:16:58;;;;;;;12.27;3.90;;;;;;;16.37;100.00;98999.34;4817300;29;20582;-74
2023/08/02 06:20:02;;;;;;;10.45;2.75;;;;;;;16.40;100.00;98971.78;4823927;29;20068;-75
2023/08/02 06:23:05;;;;;;;5.38;2.83;;;;;;;16.42;100.00;98965.38;4812545;29;20065;-76
2023/08/02 06:26:09;;;;;;;7.63;2.78;;;;;;;16.38;100.00;98966.69;4824151;29;20115;-75
2023/08/02 06:29:13;;;;;;;6.25;2.80;;;;;;;16.37;100.00;98970.31;4823295;29;20455;-75
2023/08/02 06:32:16;;;;;;;4.47;2.80;;;;;;;16.39;100.00;98967.50;4823550;29;20057;-75
2023/08/02 06:35:21;;;;;;;7.22;2.85;;;;;;;16.46;100.00;98948.28;4823020;29;20049;-75
2023/08/02 06:38:24;;;;;;;6.95;2.22;;;;;;;16.47;100.00;98946.47;4823322;29;20115;-75
2023/08/02 06:41:29;;;;;;;12.63;2.55;;;;;;;16.48;100.00;98951.56;4823142;29;20057;-75
2023/08/02 06:44:33;;;;;;;8.13;2.38;;;;;;;16.60;100.00;98948.69;4823141;29;20068;-75
2023/08/02 06:47:37;;;;;;;5.20;1.98;;;;;;;16.71;100.00;98935.19;4794618;29;20060;-74
2023/08/02 06:50:40;;;;;;;4.90;2.45;;;;;;;16.79;100.00;98922.06;4804511;29;20066;-75
2023/08/02 06:53:43;;;;;;;5.82;2.47;;;;;;;16.90;100.00;98913.03;4804367;29;20165;-75
2023/08/02 06:56:46;;;;;;;3.47;2.10;;;;;;;16.77;100.00;98921.41;4804609;29;20049;-75
2023/08/02 06:59:52;;;;;;;5.93;2.72;;;;;;;16.76;100.00;98926.84;4804714;29;20058;-73
2023/08/02 07:03:00;;;;;;;3.45;2.30;;;;;;;16.90;100.00;98924.41;4801080;29;20126;-73
2023/08/02 07:06:10;;;;;;;4.53;1.85;;;;;;;16.98;100.00;98928.09;4804967;29;20185;-73
2023/08/02 07:09:14;;;;;;;6.10;1.80;;;;;;;17.07;100.00;98921.81;4804955;29;20116;-73
2023/08/02 07:12:17;;;;;;;3.60;1.52;;;;;;;17.07;99.25;98920.03;4782597;29;20053;-73
2023/08/02 07:15:21;;;;;;;3.05;1.20;;;;;;;17.13;99.04;98918.53;4805097;29;20045;-73
2023/08/02 07:18:24;;;;;;;4.47;1.30;;;;;;;17.05;98.38;98910.59;4814687;29;20057;-73
2023/08/02 07:21:31;;;;;;;2.92;1.20;;;;;;;17.08;97.87;98913.75;4804864;29;20073;-74
2023/08/02 07:24:34;;;;;;;2.75;1.20;;;;;;;17.13;98.27;98913.25;4804784;29;20409;-74
2023/08/02 07:27:37;;;;;;;4.25;1.33;;;;;;;17.09;98.15;98898.72;4804058;29;20107;-74
2023/08/02 07:30:41;;;;;;;1.83;0.77;;;;;;;17.07;98.23;98884.84;4805150;29;20139;-75
2023/08/02 07:33:45;;;;;;;2.10;0.90;;;;;;;17.13;98.61;98886.84;4804985;29;20054;-76
2023/08/02 07:36:48;;;;;;;2.95;0.82;;;;;;;17.21;97.98;98881.59;4804782;29;20126;-70
2023/08/02 07:39:51;;;;;;;2.20;1.10;;;;;;;17.30;96.22;98877.16;4793391;29;20069;-71
2023/08/02 07:42:54;;;;;;;3.78;1.00;;;;;;;17.36;96.50;98871.22;4804854;29;20058;-70
2023/08/02 07:45:58;;;;;;;2.63;1.10;;;;;;;17.48;98.24;98859.31;4803889;29;20148;-68
2023/08/02 07:49:01;;;;;;;3.00;0.80;;;;;;;17.47;98.68;98855.03;4803115;29;20112;-72
2023/08/02 07:52:05;;;;;;;5.22;0.90;;;;;;;17.57;98.81;98842.47;4791749;29;20058;-74
2023/08/02 07:55:08;;;;;;;6.90;1.25;;;;;;;17.70;98.22;98834.03;4803943;29;20524;-74
2023/08/02 07:58:12;;;;;;;1.95;1.05;;;;;;;17.81;98.44;98836.38;4804523;29;20062;-71
2023/08/02 08:01:15;;;;;;;2.05;0.75;;;;;;;17.81;95.39;98823.16;4804292;29;20100;-74
2023/08/02 08:04:18;;;;;;;2.45;0.75;;;;;;;17.90;96.75;98805.47;4809613;29;20180;-76
2023/08/02 08:07:22;;;;;;;3.65;0.70;;;;;;;17.86;98.14;98812.88;4812244;29;20150;-75
2023/08/02 08:10:25;;;;;;;2.00;0.85;;;;;;;17.82;99.22;98802.81;4813027;29;20477;-74
2023/08/02 08:13:29;;;;;;;2.38;0.80;;;;;;;17.89;98.63;98787.94;4813336;29;20108;-75
2023/08/02 08:16:32;;;;;;;2.35;0.68;;;;;;;17.91;98.26;98790.41;4810082;29;20112;-75
2023/08/02 08:19:38;;;;;;;3.10;0.70;;;;;;;17.83;99.21;98802.66;4821896;29;20090;-75
2023/08/02 08:22:41;;;;;;;1.65;0.60;;;;;;;17.67;99.14;98792.06;4822168;29;20160;-75
2023/08/02 08:25:44;;;;;;;3.05;0.60;;;;;;;17.74;97.81;98779.84;4812232;29;20098;-75
2023/08/02 08:28:48;;;;;;;1.92;0.65;;;;;;;17.76;96.20;98777.84;4803253;29;20057;-75
2023/08/02 08:31:51;;;;;;;1.25;0.52;;;;;;;17.85;96.92;98779.50;4804163;29;20081;-75
2023/08/02 08:34:55;;;;;;;2.10;0.63;;;;;;;17.87;99.80;98759.03;4804292;29;20045;-75
2023/08/02 08:37:59;;;;;;;1.00;0.30;;;;;;;17.84;97.87;98743.50;4785972;30;20123;-75
2023/08/02 08:41:02;;;;;;;1.33;0.50;;;;;;;17.90;99.43;98739.38;4786173;29;20101;-76
2023/08/02 08:44:05;;;;;;;1.20;0.45;;;;;;;17.87;100.00;98735.22;4785980;29;20127;-74
2023/08/02 08:47:19;;;;;;;1.23;0.40;;;;;;;17.87;100.00;98732.59;4813677;29;20397;-74
2023/08/02 08:50:23;;;;;;;1.23;0.45;;;;;;;17.78;100.00;98738.06;4808292;29;20153;-74
2023/08/02 08:53:40;;;;;;;1.35;0.47;;;;;;;17.82;100.00;98729.63;4805820;29;20053;-74
2023/08/02 08:56:44;;;;;;;1.05;0.35;;;;;;;17.77;100.00;98731.13;4812353;29;20073;-73
2023/08/02 08:59:47;;;;;;;1.10;0.35;;;;;;;17.74;100.00;98727.00;4813101;29;20144;-78
2023/08/02 09:02:52;;;;;;;0.90;0.30;;;;;;;17.81;100.00;98727.97;4827468;29;20046;-74
2023/08/02 09:06:00;;;;;;;1.17;0.20;;;;;;;17.78;100.00;98722.22;4831047;29;20576;-76
2023/08/02 09:09:03;;;;;;;1.40;0.30;;;;;;;17.77;100.00;98720.53;4828151;29;20057;-77
2023/08/02 09:12:07;;;;;;;1.65;0.22;;;;;;;17.82;100.00;98711.13;4831382;29;20089;-77
2023/08/02 09:15:13;;;;;;;0.60;0.20;;;;;;;17.86;100.00;98704.47;4827454;29;20084;-77
2023/08/02 09:18:16;;;;;;;4.07;0.20;;;;;;;17.82;99.92;98697.91;4828757;29;20553;-75
2023/08/02 09:21:24;;;;;;;1.85;0.30;;;;;;;17.89;99.41;98688.28;4827837;29;20060;-76
2023/08/02 09:24:36;;;;;;;0.82;0.30;;;;;;;17.96;99.60;98691.06;4828474;29;20102;-75
2023/08/02 09:27:39;;;;;;;2.10;0.30;;;;;;;17.95;99.40;98683.31;4829680;29;20108;-75
2023/08/02 09:31:13;;;;;;;1.88;0.35;;;;;;;17.96;99.36;98682.31;4830756;29;20049;-75
2023/08/02 09:34:17;;;;;;;0.57;0.20;;;;;;;17.92;99.60;98673.06;4832105;29;20417;-75
2023/08/02 09:37:36;;;;;;;1.95;0.20;;;;;;;17.89;100.00;98677.69;4832983;29;20407;-75
2023/08/02 09:40:40;;;;;;;1.00;0.30;;;;;;;17.88;100.00;98670.78;4834376;29;20056;-76
2023/08/02 09:43:44;;;;;;;4.25;0.63;;;;;;;17.87;100.00;98663.03;4825754;29;20104;-75
2023/08/02 09:46:47;;;;;;;0.30;0.10;;;;;;;17.85;100.00;98660.53;4833866;29;20049;-76
2023/08/02 09:50:11;;;;;;;1.98;0.30;;;;;;;17.88;100.00;98654.09;4829713;29;20048;-75
2023/08/02 09:53:17;;;;;;;1.85;0.22;;;;;;;17.85;100.00;98642.03;4828162;29;20413;-75
2023/08/02 09:56:24;;;;;;;1.75;0.28;;;;;;;17.82;100.00;98633.63;4830602;29;20073;-76
2023/08/02 09:59:30;;;;;;;1.25;0.20;;;;;;;17.84;100.00;98635.13;4817823;29;20101;-76
2023/08/02 10:02:36;;;;;;;0.95;0.20;;;;;;;17.82;100.00;98634.44;4816722;29;20149;-77
2023/08/02 10:05:43;;;;;;;2.78;0.60;;;;;;;17.78;100.00;98629.69;4810500;29;20156;-76
2023/08/02 10:08:51;;;;;;;2.05;0.22;;;;;;;17.86;100.00;98619.88;4814787;29;20105;-78
2023/08/02 10:12:47;;;;;;;1.17;0.20;;;;;;;17.97;100.00;98613.41;4812377;29;20524;-80
2023/08/02 10:15:51;;;;;;;2.13;0.30;;;;;;;17.96;100.00;98602.97;4813238;29;20059;-79
2023/08/02 10:18:58;;;;;;;1.08;0.20;;;;;;;17.94;100.00;98603.16;4809069;29;20048;-74
2023/08/02 10:22:04;;;;;;;0.90;0.17;;;;;;;17.95;100.00;98581.00;4813673;29;20515;-72
2023/08/02 10:25:07;;;;;;;2.80;0.30;;;;;;;17.94;100.00;98578.56;4811647;29;20161;-77
2023/08/02 10:28:12;;;;;;;3.70;0.20;;;;;;;17.87;100.00;98573.97;4813629;29;20553;-71
2023/08/02 10:31:17;;;;;;;1.80;0.30;;;;;;;18.10;100.00;98567.88;4811714;29;20093;-71
2023/08/02 10:34:35;;;;;;;0.95;0.20;;;;;;;18.20;100.00;98567.63;4810897;29;20045;-72
2023/08/02 10:37:54;;;;;;;1.40;0.20;;;;;;;18.28;100.00;98564.91;4821273;29;20195;-70
2023/08/02 10:41:02;;;;;;;2.88;0.52;;;;;;;18.17;100.00;98562.69;4824039;29;20489;-70
2023/08/02 10:44:13;;;;;;;1.95;0.20;;;;;;;18.28;100.00;98560.47;4823643;29;20056;-71
2023/08/02 10:47:27;;;;;;;2.13;0.20;;;;;;;18.32;100.00;98556.44;4823725;29;20052;-70
2023/08/02 10:50:48;;;;;;;3.17;0.63;;;;;;;18.43;100.00;98533.22;4823785;29;20420;-69
2023/08/02 10:54:13;;;;;;;3.40;0.13;;;;;;;18.50;100.00;98536.78;4823491;29;20125;-70
2023/08/02 10:57:17;;;;;;;1.48;0.10;;;;;;;18.55;100.00;98513.25;4823549;29;20185;-71
2023/08/02 11:00:26;;;;;;;0.60;0.10;;;;;;;18.64;100.00;98517.47;4827890;29;20061;-66
2023/08/02 11:03:30;;;;;;;0.90;0.17;;;;;;;18.62;100.00;98516.81;4842413;29;20568;-73
2023/08/02 11:06:34;;;;;;;2.60;0.20;;;;;;;18.71;100.00;98523.66;4842044;29;20119;-73
2023/08/02 11:09:54;;;;;;;1.73;0.20;;;;;;;18.77;100.00;98515.03;4841964;29;20126;-73
2023/08/02 11:12:58;;;;;;;0.50;0.10;;;;;;;18.84;100.00;98501.91;4841939;29;20111;-73
2023/08/02 11:16:03;;;;;;;2.22;0.10;;;;;;;18.78;100.00;98506.09;4826028;29;20049;-72
2023/08/02 11:19:10;;;;;;;0.20;0.03;;;;;;;18.87;100.00;98501.53;4823662;29;20061;-73
2023/08/02 11:22:15;;;;;;;0.77;0.10;;;;;;;18.93;100.00;98502.63;4823725;29;20057;-73
2023/08/02 11:25:20;;;;;;;2.08;0.10;;;;;;;18.98;100.00;98494.94;4823457;29;20133;-73
2023/08/02 11:28:25;;;;;;;0.98;0.20;;;;;;;19.02;100.00;98490.94;4823638;29;20121;-73
2023/08/02 11:31:28;;;;;;;0.73;0.10;;;;;;;19.14;100.00;98481.50;4823416;29;20049;-73
2023/08/02 11:34:39;;;;;;;0.70;0.10;;;;;;;19.08;100.00;98479.63;4822634;29;20047;-73
2023/08/02 11:37:43;;;;;;;0.60;0.10;;;;;;;19.18;100.00;98471.38;4822639;29;20049;-73
2023/08/02 11:40:47;;;;;;;0.50;0.00;;;;;;;19.27;100.00;98470.25;4823372;29;20533;-71
2023/08/02 11:43:50;;;;;;;1.27;0.05;;;;;;;19.36;100.00;98463.00;4823351;29;20104;-71
2023/08/02 11:47:01;;;;;;;1.08;0.20;;;;;;;19.33;100.00;98464.19;4823224;29;20106;-70
2023/08/02 11:50:05;;;;;;;0.20;0.00;;;;;;;19.35;100.00;98441.00;4823078;29;20147;-70
2023/08/02 11:53:08;;;;;;;0.80;0.10;;;;;;;19.36;100.00;98444.47;4822734;29;20048;-72
2023/08/02 11:56:16;;;;;;;2.20;0.10;;;;;;;19.42;100.00;98409.25;4822293;29;20126;-72
2023/08/02 11:59:20;;;;;;;1.45;0.22;;;;;;;19.49;100.00;98420.75;4821838;29;20191;-74
2023/08/02 12:02:24;;;;;;;0.82;0.13;;;;;;;19.43;100.00;98442.69;4822194;29;20057;-73
2023/08/02 12:05:27;;;;;;;0.00;0.00;;;;;;;19.26;100.00;98448.22;4811026;29;20053;-72
2023/08/02 12:08:30;;;;;;;0.43;0.10;;;;;;;19.32;100.00;98440.56;4822345;29;20057;-72
2023/08/02 12:11:34;;;;;;;1.00;0.10;;;;;;;19.35;100.00;98421.63;4822236;29;20052;-73
2023/08/02 12:14:41;;;;;;;0.63;0.10;;;;;;;19.45;100.00;98422.13;4824765;29;20140;-74
2023/08/02 12:18:00;;;;;;;0.10;0.10;;;;;;;19.62;100.00;98420.91;4831798;29;20108;-74
2023/08/02 12:21:16;;;;;;;1.48;0.10;;;;;;;19.86;100.00;98402.97;4829370;29;20049;-73
2023/08/02 12:24:19;;;;;;;0.10;0.00;;;;;;;20.00;100.00;98407.34;4828211;29;20421;-72
2023/08/02 12:27:23;;;;;;;0.30;0.10;;;;;;;20.11;100.00;98409.50;4830971;29;20512;-73
2023/08/02 12:30:30;;;;;;;0.32;0.10;;;;;;;19.98;100.00;98406.75;4829968;29;20046;-73
2023/08/02 12:33:37;;;;;;;0.40;0.10;;;;;;;20.13;100.00;98404.81;4841205;29;20068;-73
2023/08/02 12:36:40;;;;;;;0.40;0.15;;;;;;;20.22;99.74;98405.47;4830857;29;20045;-73
2023/08/02 12:39:44;;;;;;;0.32;0.10;;;;;;;20.34;99.46;98397.81;4830783;29;20413;-74
2023/08/02 12:42:47;;;;;;;1.80;0.40;;;;;;;20.59;98.56;98395.53;4830084;29;20103;-72
2023/08/02 12:45:52;;;;;;;3.28;0.20;;;;;;;20.79;97.39;98387.66;4828140;29;20228;-73
2023/08/02 12:48:57;;;;;;;0.60;0.10;;;;;;;20.82;95.80;98373.97;4831969;29;20125;-74
2023/08/02 12:52:01;;;;;;;3.25;0.30;;;;;;;20.87;97.49;98376.88;4828626;29;20129;-72
2023/08/02 12:55:08;;;;;;;2.05;0.10;;;;;;;20.65;94.57;98374.31;4830118;29;20099;-71
2023/08/02 12:58:12;;;;;;;1.85;0.20;;;;;;;20.62;96.11;98364.09;4827466;29;20111;-72
2023/08/02 13:01:17;;;;;;;1.50;0.35;;;;;;;20.62;94.54;98369.41;4819305;29;20120;-72
2023/08/02 13:04:21;;;;;;;0.28;0.10;;;;;;;20.65;94.48;98347.78;4786467;29;20078;-71
2023/08/02 13:07:26;;;;;;;0.50;0.20;;;;;;;20.61;97.03;98349.19;4804362;29;20057;-72
2023/08/02 13:10:29;;;;;;;4.97;0.22;;;;;;;20.59;96.02;98343.25;4808118;29;20042;-72
2023/08/02 13:13:33;;;;;;;1.42;0.20;;;;;;;20.63;97.25;98348.97;4806132;29;20053;-72
2023/08/02 13:16:36;;;;;;;1.80;0.35;;;;;;;20.74;98.81;98352.91;4815084;29;20131;-71
2023/08/02 13:19:40;;;;;;;2.15;0.20;;;;;;;20.69;97.92;98361.47;4825490;29;20100;-72
2023/08/02 13:22:44;;;;;;;1.50;0.22;;;;;;;20.81;100.00;98377.66;4815272;29;20112;-71
2023/08/02 13:25:57;;;;;;;0.77;0.20;;;;;;;20.69;100.00;98379.25;4807300;29;20054;-74
2023/08/02 13:29:01;;;;;;;0.70;0.30;;;;;;;20.61;99.35;98389.03;4814150;29;20101;-72
2023/08/02 13:32:05;;;;;;;1.00;0.30;;;;;;;20.58;100.00;98394.72;4810617;29;20085;-72
2023/08/02 13:35:09;;;;;;;1.10;0.30;;;;;;;20.54;99.53;98392.63;4819659;29;20515;-74
2023/08/02 13:38:13;;;;;;;2.65;0.65;;;;;;;20.59;100.00;98396.34;4824743;29;20122;-73
2023/08/02 13:41:41;;;;;;;1.10;0.40;;;;;;;21.38;97.22;98367.63;4808142;29;20127;-74
2023/08/02 13:44:46;;;;;;;4.75;0.35;;;;;;;21.75;95.27;98360.91;4808838;29;20050;-75
2023/08/02 13:47:49;;;;;;;1.42;0.30;;;;;;;22.06;90.16;98354.94;4813502;29;20783;-74
2023/08/02 13:50:53;;;;;;;0.77;0.20;;;;;;;22.59;87.57;98340.72;4814056;29;20115;-75
2023/08/02 13:53:57;;;;;;;3.40;0.30;;;;;;;22.64;84.06;98341.72;4816656;29;20061;-75
2023/08/02 13:57:00;;;;;;;0.88;0.20;;;;;;;22.81;82.54;98331.38;4813674;29;20584;-72
2023/08/02 14:00:07;;;;;;;1.13;0.38;;;;;;;22.82;82.42;98310.91;4818165;29;20058;-71
2023/08/02 14:03:11;;;;;;;2.53;0.30;;;;;;;23.38;80.84;98308.31;4827080;29;20512;-70
2023/08/02 14:06:15;;;;;;;3.38;0.90;;;;;;;23.75;76.81;98294.31;4830923;29;20045;-71
2023/08/02 14:09:20;;;;;;;3.55;2.10;;;;;;;24.16;74.62;98300.88;4834549;29;20114;-72
2023/08/02 14:12:23;;;;;;;1.65;0.47;;;;;;;24.70;70.01;98286.69;4834123;29;20068;-70
2023/08/02 14:15:26;;;;;;;2.05;0.20;;;;;;;24.79;67.52;98274.66;4830479;29;20053;-69
2023/08/02 14:18:29;;;;;;;1.83;0.40;;;;;;;24.59;68.99;98266.06;4830402;29;20133;-71
2023/08/02 14:21:38;;;;;;;1.23;0.30;;;;;;;26.00;63.79;98258.31;4831901;29;20110;-70
2023/08/02 14:24:42;;;;;;;1.77;0.38;;;;;;;27.44;57.74;98270.72;4836112;29;20111;-70